Nearby METAR Reports

 

YBUD - Bundaberg, Australia
Distance from station: SSW 6km
Updated: 14/07/2020 07:00
Clear
Clear
 Wind from SW
Wind: SW 13 km/h
Temperature: 9°C
Wind Chill: 7°C
Dew Point: 3°C
Humidity: 66%
Barometer: 1020 hPa
Clouds: Clear
Visibility: 10 km
2020/07/13 21:00 YBUD 132100Z AUTO 22007KT 9999 // NCD 09/03 Q1020
YGLA - Gladstone, Australia
Distance from station: NW 159km
Updated: 14/07/2020 07:00
Clear
Clear
 Wind from SSW
Wind: SSW 4 km/h
Temperature: 9°C
Dew Point: 2°C
Humidity: 62%
Barometer: 1020 hPa
Clouds: Clear
Visibility: 10 km
2020/07/13 21:00 YGLA 132100Z AUTO 20002KT 9999 // NCD 09/02 Q1020 RF00.0/000.0
YBRK - Rockhampton Airp, Australia
Distance from station: NW 252km
Updated: 14/07/2020 07:00
Clear
Clear
 Wind from SSW
Wind: SSW 20 km/h
Temperature: 11°C
Dew Point: 3°C
Humidity: 58%
Barometer: 1021 hPa
Clouds: Clear
Visibility: 10 km
2020/07/13 21:00 YBRK 132100Z AUTO 20011KT 9999 // NCD 11/03 Q1021
 
YBBN - Brisbane Intl Ar, Australia
Distance from station: SSE 292km
Updated: 14/07/2020 07:00
Few Clouds
Few Clouds
 Wind from W
Wind: W 31 km/h
Temperature: 11°C
Dew Point: 4°C
Humidity: 62%
Barometer: 1017 hPa
Clouds: Few Clouds
Visibility: 10 km
Cloud details: Few Clouds 762 m
2020/07/13 21:00 YBBN 132100Z 26017KT 9999 FEW025 11/04 Q1017
YAMB - Amberley, Australia
Distance from station: S 312km
Updated: 14/07/2020 07:00
Few Clouds
Few Clouds
 Wind from WNW
Wind: WNW 17 km/h
Temperature: 9°C
Wind Chill: 7°C
Dew Point: 4°C
Humidity: 71%
Barometer: 1018 hPa
Clouds: Few Clouds
Visibility: 10 km
Cloud details: Few Clouds 1372 m
2020/07/13 21:00 YAMB 132100Z 30009KT 9999 FEW045 09/04 Q1018
YBCG - Coolangatta Aws, Australia
Distance from station: SSE 386km
Updated: 14/07/2020 07:00
Clear
Clear
 Wind from WNW
Wind: WNW 11 km/h
Temperature: 7°C
Wind Chill: 5°C
Dew Point: 3°C
Humidity: 76%
Barometer: 1015 hPa
Clouds: Clear
Visibility: 10 km
2020/07/13 21:00 YBCG 132100Z AUTO 30006KT 9999 // NCD 07/03 Q1015